Time;durP1;ratioP1;P1;durP2;ratioP2;P2;SDS_P1;SDS_P2;PMS_P1;PMS_P2;Temp;Humidity;BMP_temperature;BMP_pressure;BME280_temperature;BME280_humidity;BME280_pressure;Samples;Min_cycle;Max_cycle;Signal;HPM_P1;HPM_P2
2021/08/17 00:17:03;;;;;;;24.23;12.48;;;;;;;;;;4513322;28;20503;-66
2021/08/17 00:19:29;;;;;;;24.77;13.07;;;;;;;;;;4284750;33;20444;-66
2021/08/17 00:21:55;;;;;;;31.15;13.30;;;;;;;;;;4277608;33;20214;-66
2021/08/17 00:24:20;;;;;;;25.48;12.02;;;;;;;;;;4274209;33;20282;-66
2021/08/17 00:26:46;;;;;;;29.20;12.18;;;;;;;;;;4260359;33;20459;-66
2021/08/17 00:29:12;;;;;;;25.10;12.77;;;;;;;;;;4247490;33;20437;-67
2021/08/17 00:31:39;;;;;;;29.05;13.27;;;;;;;;;;4260366;33;20121;-66
2021/08/17 00:34:05;;;;;;;29.87;13.27;;;;;;;;;;4254651;33;20120;-66
2021/08/17 00:36:31;;;;;;;29.42;13.43;;;;;;;;;;4274605;33;20210;-67
2021/08/17 00:38:58;;;;;;;31.02;13.57;;;;;;;;;;4272964;33;20139;-67
2021/08/17 00:41:24;;;;;;;25.12;12.63;;;;;;;;;;4274695;33;20147;-66
2021/08/17 00:43:50;;;;;;;31.92;14.25;;;;;;;;;;4261422;33;20150;-67
2021/08/17 00:46:16;;;;;;;26.98;12.18;;;;;;;;;;4274460;33;20113;-67
2021/08/17 00:48:42;;;;;;;32.22;13.45;;;;;;;;;;4274629;33;20139;-67
2021/08/17 00:51:08;;;;;;;25.55;13.27;;;;;;;;;;4261198;33;20516;-66
2021/08/17 00:53:35;;;;;;;25.92;12.73;;;;;;;;;;4261518;33;20199;-68
2021/08/17 00:56:01;;;;;;;29.75;13.27;;;;;;;;;;4274406;33;20120;-67
2021/08/17 00:58:28;;;;;;;23.38;12.25;;;;;;;;;;4261251;33;20512;-66
2021/08/17 01:00:56;;;;;;;23.62;11.77;;;;;;;;;;4274365;33;20218;-66
2021/08/17 01:03:22;;;;;;;28.35;12.43;;;;;;;;;;4274467;33;20571;-66
2021/08/17 01:05:49;;;;;;;28.33;12.85;;;;;;;;;;4274380;33;20120;-66
2021/08/17 01:08:15;;;;;;;32.67;12.93;;;;;;;;;;4261123;33;20533;-66
2021/08/17 01:10:41;;;;;;;29.92;12.93;;;;;;;;;;4274272;33;20112;-66
2021/08/17 01:13:08;;;;;;;24.35;11.82;;;;;;;;;;4249689;33;20625;-67
2021/08/17 01:15:34;;;;;;;28.38;13.25;;;;;;;;;;4262058;33;20116;-66
2021/08/17 01:18:01;;;;;;;22.70;12.15;;;;;;;;;;4276508;33;20191;-66
2021/08/17 01:20:27;;;;;;;28.70;12.57;;;;;;;;;;4276445;33;20131;-65
2021/08/17 01:22:53;;;;;;;27.42;13.60;;;;;;;;;;4263533;33;20143;-66
2021/08/17 01:25:19;;;;;;;24.85;12.73;;;;;;;;;;4276420;33;20227;-65
2021/08/17 01:27:45;;;;;;;30.88;13.60;;;;;;;;;;4276523;33;20170;-66
2021/08/17 01:30:12;;;;;;;27.25;13.23;;;;;;;;;;4276417;33;20138;-67
2021/08/17 01:32:38;;;;;;;25.50;12.75;;;;;;;;;;4276728;33;20108;-66
2021/08/17 01:35:05;;;;;;;30.55;13.85;;;;;;;;;;4277192;33;20704;-67
2021/08/17 01:37:31;;;;;;;27.27;13.35;;;;;;;;;;4277239;33;20108;-67
2021/08/17 01:40:05;;;;;;;25.30;12.93;;;;;;;;;;4277147;33;20571;-68
2021/08/17 01:42:31;;;;;;;25.62;14.05;;;;;;;;;;4277494;33;20115;-67
2021/08/17 01:45:00;;;;;;;25.23;13.43;;;;;;;;;;4280432;33;20152;-67
2021/08/17 01:47:31;;;;;;;30.80;14.30;;;;;;;;;;4287791;33;20096;-67
2021/08/17 01:50:02;;;;;;;28.48;14.13;;;;;;;;;;4263740;33;20095;-67
2021/08/17 01:52:32;;;;;;;27.55;13.20;;;;;;;;;;4257520;33;20419;-67
2021/08/17 01:54:58;;;;;;;31.12;14.85;;;;;;;;;;4248858;33;20116;-67
2021/08/17 01:57:24;;;;;;;30.58;13.62;;;;;;;;;;4248963;33;20093;-67
2021/08/17 01:59:53;;;;;;;29.33;13.40;;;;;;;;;;4249030;33;20242;-68
2021/08/17 02:02:19;;;;;;;29.23;13.62;;;;;;;;;;4261822;33;20104;-67
2021/08/17 02:04:46;;;;;;;33.00;15.98;;;;;;;;;;4248725;33;20121;-67
2021/08/17 02:07:12;;;;;;;34.95;14.18;;;;;;;;;;4261685;33;20614;-67
2021/08/17 02:09:38;;;;;;;23.90;12.77;;;;;;;;;;4249025;33;20223;-67
2021/08/17 02:12:04;;;;;;;33.17;14.02;;;;;;;;;;4261729;33;20704;-67
2021/08/17 02:14:30;;;;;;;35.50;14.25;;;;;;;;;;4261739;33;20128;-67
2021/08/17 02:16:56;;;;;;;31.92;14.10;;;;;;;;;;4261894;33;20494;-67
2021/08/17 02:19:22;;;;;;;31.10;13.82;;;;;;;;;;4276121;33;20129;-67
2021/08/17 02:21:47;;;;;;;28.08;14.68;;;;;;;;;;4276186;33;20168;-67
2021/08/17 02:24:13;;;;;;;27.40;13.73;;;;;;;;;;4276064;33;20206;-67
2021/08/17 02:26:39;;;;;;;31.62;14.55;;;;;;;;;;4275120;33;20123;-67
2021/08/17 02:29:05;;;;;;;28.58;13.50;;;;;;;;;;4262668;33;20191;-68
2021/08/17 02:31:31;;;;;;;30.17;14.45;;;;;;;;;;4275869;33;20139;-67
2021/08/17 02:33:57;;;;;;;28.23;13.75;;;;;;;;;;4275928;33;20135;-67
2021/08/17 02:36:23;;;;;;;31.48;14.13;;;;;;;;;;4262707;33;20111;-68
2021/08/17 02:38:49;;;;;;;29.35;14.23;;;;;;;;;;4262860;33;20116;-68
2021/08/17 02:41:15;;;;;;;30.50;15.98;;;;;;;;;;4276096;33;20176;-65
2021/08/17 02:43:59;;;;;;;28.17;14.65;;;;;;;;;;4262598;33;20512;-66
2021/08/17 02:46:25;;;;;;;29.75;12.82;;;;;;;;;;4269303;33;20107;-67
2021/08/17 02:48:51;;;;;;;29.27;14.20;;;;;;;;;;4270954;33;20100;-66
2021/08/17 02:51:17;;;;;;;35.25;13.85;;;;;;;;;;4261294;33;20527;-66
2021/08/17 02:53:43;;;;;;;30.33;13.75;;;;;;;;;;4256458;33;20124;-66
2021/08/17 02:56:09;;;;;;;34.42;14.50;;;;;;;;;;4275334;33;20234;-68
2021/08/17 02:58:36;;;;;;;33.25;13.93;;;;;;;;;;4262516;33;20116;-65
2021/08/17 03:01:02;;;;;;;32.30;14.87;;;;;;;;;;4274393;33;20103;-66
2021/08/17 03:03:28;;;;;;;27.25;14.60;;;;;;;;;;4261293;33;20607;-66
2021/08/17 03:05:54;;;;;;;29.95;14.75;;;;;;;;;;4247911;33;20133;-66
2021/08/17 03:08:21;;;;;;;30.65;14.15;;;;;;;;;;4260190;33;20555;-66
2021/08/17 03:10:46;;;;;;;34.60;13.85;;;;;;;;;;4259146;33;20120;-65
2021/08/17 03:13:12;;;;;;;29.55;15.02;;;;;;;;;;4259187;33;20153;-66
2021/08/17 03:15:40;;;;;;;38.70;14.65;;;;;;;;;;4258608;33;20366;-66
2021/08/17 03:18:08;;;;;;;29.42;14.27;;;;;;;;;;4260987;33;20117;-64
2021/08/17 03:20:35;;;;;;;29.17;14.00;;;;;;;;;;4273266;33;20115;-64
2021/08/17 03:23:01;;;;;;;38.85;14.30;;;;;;;;;;4273218;33;20127;-65
2021/08/17 03:25:27;;;;;;;35.28;14.40;;;;;;;;;;4260946;33;20108;-64
2021/08/17 03:27:53;;;;;;;33.40;14.32;;;;;;;;;;4275980;33;20127;-69
2021/08/17 03:30:23;;;;;;;30.90;14.38;;;;;;;;;;4262264;33;20108;-69
2021/08/17 03:33:10;;;;;;;48.05;15.15;;;;;;;;;;4276367;33;20451;-69
2021/08/17 03:36:05;;;;;;;31.40;15.48;;;;;;;;;;4267566;33;20170;-65
2021/08/17 03:38:32;;;;;;;29.42;13.55;;;;;;;;;;4270757;33;20187;-70
2021/08/17 03:41:12;;;;;;;33.65;14.57;;;;;;;;;;4263936;33;20525;-70
2021/08/17 03:43:52;;;;;;;30.23;14.45;;;;;;;;;;4262755;33;20116;-67
2021/08/17 03:46:18;;;;;;;39.45;16.12;;;;;;;;;;4266923;33;20101;-68
2021/08/17 03:48:51;;;;;;;37.50;14.77;;;;;;;;;;4271244;33;20520;-66
2021/08/17 03:51:24;;;;;;;33.80;15.48;;;;;;;;;;4262710;33;20737;-66
2021/08/17 03:53:55;;;;;;;33.92;15.07;;;;;;;;;;4261937;33;20127;-66
2021/08/17 03:56:28;;;;;;;38.70;15.88;;;;;;;;;;4263249;33;20103;-64
2021/08/17 03:58:54;;;;;;;35.03;15.13;;;;;;;;;;4250996;33;20530;-68
2021/08/17 04:01:22;;;;;;;39.72;16.23;;;;;;;;;;4282746;28;20095;-68
2021/08/17 04:03:49;;;;;;;29.05;13.90;;;;;;;;;;4235860;33;20104;-67
2021/08/17 04:06:15;;;;;;;42.42;16.33;;;;;;;;;;4260688;33;20523;-64
2021/08/17 04:08:41;;;;;;;45.63;16.92;;;;;;;;;;4247562;33;20125;-65
2021/08/17 04:11:07;;;;;;;38.30;15.20;;;;;;;;;;4260772;33;20160;-67
2021/08/17 04:13:33;;;;;;;38.03;15.90;;;;;;;;;;4247475;33;20136;-67
2021/08/17 04:15:59;;;;;;;40.55;14.95;;;;;;;;;;4260905;33;20480;-67
2021/08/17 04:18:25;;;;;;;37.30;14.07;;;;;;;;;;4260827;33;20104;-66
2021/08/17 04:20:52;;;;;;;32.72;14.95;;;;;;;;;;4247953;33;20209;-65
2021/08/17 04:23:18;;;;;;;29.12;14.63;;;;;;;;;;4247489;33;20476;-65
2021/08/17 04:25:46;;;;;;;35.95;15.88;;;;;;;;;;4259014;33;20164;-64
2021/08/17 04:28:12;;;;;;;38.35;15.23;;;;;;;;;;4247654;33;20228;-64
2021/08/17 04:30:40;;;;;;;36.55;14.87;;;;;;;;;;4233072;33;20140;-64
2021/08/17 04:33:07;;;;;;;33.03;15.57;;;;;;;;;;4246351;33;20115;-65
2021/08/17 04:35:34;;;;;;;24.58;13.75;;;;;;;;;;4251464;33;20187;-64
2021/08/17 04:38:00;;;;;;;36.08;14.20;;;;;;;;;;4258076;33;20195;-64
2021/08/17 04:40:26;;;;;;;37.95;14.55;;;;;;;;;;4237439;33;20088;-65
2021/08/17 04:42:54;;;;;;;29.55;14.27;;;;;;;;;;4260728;33;20558;-65
2021/08/17 04:45:20;;;;;;;40.85;14.82;;;;;;;;;;4260216;33;20104;-65
2021/08/17 04:47:51;;;;;;;41.03;14.43;;;;;;;;;;4246988;33;20452;-65
2021/08/17 04:50:19;;;;;;;26.25;14.68;;;;;;;;;;4246306;33;20107;-63
2021/08/17 04:52:45;;;;;;;29.67;14.10;;;;;;;;;;4247091;33;20599;-64
2021/08/17 04:55:11;;;;;;;36.97;15.23;;;;;;;;;;4247014;33;20128;-66
2021/08/17 04:57:48;;;;;;;36.00;15.25;;;;;;;;;;4247572;33;20497;-64
2021/08/17 05:00:15;;;;;;;30.17;12.90;;;;;;;;;;4248357;33;20195;-64
2021/08/17 05:02:41;;;;;;;38.38;15.48;;;;;;;;;;4247735;33;20105;-65
2021/08/17 05:05:08;;;;;;;37.35;14.80;;;;;;;;;;4260914;33;20140;-65
2021/08/17 05:07:38;;;;;;;32.55;14.87;;;;;;;;;;4261495;33;20424;-64
2021/08/17 05:10:06;;;;;;;43.00;15.15;;;;;;;;;;4248154;33;20097;-65
2021/08/17 05:12:31;;;;;;;39.92;15.82;;;;;;;;;;4260718;33;20119;-65
2021/08/17 05:14:57;;;;;;;35.55;14.93;;;;;;;;;;4246966;33;20132;-66
2021/08/17 05:17:23;;;;;;;39.28;15.00;;;;;;;;;;4246975;33;20208;-65
2021/08/17 05:19:49;;;;;;;45.20;15.95;;;;;;;;;;4246686;33;20118;-65
2021/08/17 05:22:15;;;;;;;38.28;15.38;;;;;;;;;;4259878;33;20204;-65
2021/08/17 05:24:42;;;;;;;46.58;14.65;;;;;;;;;;4259811;33;20130;-65
2021/08/17 05:27:09;;;;;;;36.15;15.23;;;;;;;;;;4248235;33;20514;-64
2021/08/17 05:29:35;;;;;;;30.88;14.05;;;;;;;;;;4272758;33;20131;-65
2021/08/17 05:32:01;;;;;;;34.13;14.77;;;;;;;;;;4260055;33;20657;-64
2021/08/17 05:34:27;;;;;;;33.15;15.43;;;;;;;;;;4259651;33;20156;-65
2021/08/17 05:36:53;;;;;;;33.08;14.98;;;;;;;;;;4259208;33;20105;-65
2021/08/17 05:39:19;;;;;;;30.85;13.98;;;;;;;;;;4245892;33;20151;-65
2021/08/17 05:41:45;;;;;;;31.58;14.45;;;;;;;;;;4244394;33;20496;-65
2021/08/17 05:44:11;;;;;;;36.30;15.65;;;;;;;;;;4259804;33;20107;-65
2021/08/17 05:46:37;;;;;;;33.85;15.48;;;;;;;;;;4259041;33;20131;-65
2021/08/17 05:49:03;;;;;;;37.60;15.20;;;;;;;;;;4246554;33;20110;-65
2021/08/17 05:51:29;;;;;;;35.58;14.27;;;;;;;;;;4246408;33;20188;-65
2021/08/17 05:53:56;;;;;;;32.80;14.70;;;;;;;;;;4259648;33;20123;-66
2021/08/17 05:56:21;;;;;;;35.42;16.05;;;;;;;;;;4250253;33;20445;-65
2021/08/17 05:58:48;;;;;;;28.62;13.98;;;;;;;;;;4259314;33;20128;-65
2021/08/17 06:01:14;;;;;;;32.85;13.93;;;;;;;;;;4259899;33;20137;-65
2021/08/17 06:03:41;;;;;;;31.33;14.93;;;;;;;;;;4261853;33;20116;-65
2021/08/17 06:06:07;;;;;;;33.03;14.32;;;;;;;;;;4261076;33;20120;-64
2021/08/17 06:08:33;;;;;;;37.60;15.18;;;;;;;;;;4261593;33;20112;-65
2021/08/17 06:10:59;;;;;;;36.03;14.43;;;;;;;;;;4248447;33;20588;-65
2021/08/17 06:13:27;;;;;;;31.62;14.95;;;;;;;;;;4261813;33;20113;-65
2021/08/17 06:15:53;;;;;;;34.67;14.18;;;;;;;;;;4248665;33;20135;-65
2021/08/17 06:18:19;;;;;;;30.58;14.48;;;;;;;;;;4261513;33;20131;-65
2021/08/17 06:20:45;;;;;;;28.95;14.75;;;;;;;;;;4248030;33;20108;-65
2021/08/17 06:23:12;;;;;;;39.08;14.25;;;;;;;;;;4248717;33;20112;-65
2021/08/17 06:25:38;;;;;;;35.75;13.38;;;;;;;;;;4259776;33;20117;-64
2021/08/17 06:28:11;;;;;;;33.72;13.48;;;;;;;;;;4236753;33;20131;-65
2021/08/17 06:30:38;;;;;;;31.95;14.30;;;;;;;;;;4261097;33;20595;-64
2021/08/17 06:33:04;;;;;;;31.87;14.70;;;;;;;;;;4260227;33;20138;-66
2021/08/17 06:35:30;;;;;;;28.42;14.48;;;;;;;;;;4259932;33;20131;-65
2021/08/17 06:37:56;;;;;;;35.97;14.87;;;;;;;;;;4248096;33;20127;-66
2021/08/17 06:40:22;;;;;;;29.80;14.27;;;;;;;;;;4236525;33;20120;-65
2021/08/17 06:42:48;;;;;;;35.90;15.40;;;;;;;;;;4248121;33;20125;-64
2021/08/17 06:45:14;;;;;;;39.03;15.45;;;;;;;;;;4261179;33;20655;-66
2021/08/17 06:47:52;;;;;;;31.65;13.35;;;;;;;;;;4261251;33;20452;-65
2021/08/17 06:50:18;;;;;;;29.55;14.15;;;;;;;;;;4248315;33;20503;-65
2021/08/17 06:52:44;;;;;;;27.92;14.00;;;;;;;;;;4255304;33;20514;-65
2021/08/17 06:55:11;;;;;;;34.25;13.55;;;;;;;;;;4272736;33;20104;-67
2021/08/17 06:57:37;;;;;;;29.75;13.60;;;;;;;;;;4261030;33;20195;-63
2021/08/17 07:00:08;;;;;;;32.50;14.02;;;;;;;;;;4248410;33;20148;-67
2021/08/17 07:02:34;;;;;;;28.10;14.18;;;;;;;;;;4261128;33;20523;-70
2021/08/17 07:05:00;;;;;;;32.90;14.20;;;;;;;;;;4261400;33;20622;-67
2021/08/17 07:07:26;;;;;;;29.80;13.38;;;;;;;;;;4260736;33;20120;-69
2021/08/17 07:09:52;;;;;;;30.00;13.20;;;;;;;;;;4248206;33;20116;-65
2021/08/17 07:12:19;;;;;;;30.80;14.00;;;;;;;;;;4248020;33;20132;-69
2021/08/17 07:14:45;;;;;;;30.77;12.60;;;;;;;;;;4261569;33;20113;-67
2021/08/17 07:17:11;;;;;;;31.52;12.70;;;;;;;;;;4248285;33;20099;-73
2021/08/17 07:19:37;;;;;;;31.10;12.73;;;;;;;;;;4261519;33;20119;-68
2021/08/17 07:22:03;;;;;;;30.27;12.68;;;;;;;;;;4247783;33;20591;-71
2021/08/17 07:24:29;;;;;;;31.02;14.02;;;;;;;;;;4247363;33;20154;-70
2021/08/17 07:26:56;;;;;;;31.05;14.45;;;;;;;;;;4246763;33;20155;-63
2021/08/17 07:29:22;;;;;;;24.55;12.63;;;;;;;;;;4246904;33;20224;-66
2021/08/17 07:31:48;;;;;;;30.30;14.40;;;;;;;;;;4246966;33;20448;-69
2021/08/17 07:34:14;;;;;;;28.45;13.25;;;;;;;;;;4246962;33;20085;-69
2021/08/17 07:36:40;;;;;;;28.98;13.48;;;;;;;;;;4246729;33;20123;-71
2021/08/17 07:39:07;;;;;;;30.35;13.23;;;;;;;;;;4246797;33;20140;-68
2021/08/17 07:41:34;;;;;;;30.70;13.43;;;;;;;;;;4233993;33;20595;-70
2021/08/17 07:44:00;;;;;;;29.73;13.73;;;;;;;;;;4246725;33;20113;-69
2021/08/17 07:46:26;;;;;;;32.53;14.23;;;;;;;;;;4246789;33;20117;-68
2021/08/17 07:48:52;;;;;;;36.28;13.02;;;;;;;;;;4246786;33;20133;-66
2021/08/17 07:51:18;;;;;;;32.47;14.40;;;;;;;;;;4233514;33;20108;-67
2021/08/17 07:53:44;;;;;;;30.62;13.82;;;;;;;;;;4269044;33;20092;-68
2021/08/17 07:56:11;;;;;;;27.62;13.20;;;;;;;;;;4266325;33;20135;-66
2021/08/17 07:58:38;;;;;;;33.33;13.35;;;;;;;;;;4260814;33;20139;-67
2021/08/17 08:01:04;;;;;;;28.95;11.82;;;;;;;;;;4260657;33;20105;-68
2021/08/17 08:03:33;;;;;;;37.47;12.70;;;;;;;;;;4260859;33;20121;-68
2021/08/17 08:06:08;;;;;;;32.55;13.82;;;;;;;;;;4248161;33;20112;-69
2021/08/17 08:08:41;;;;;;;24.58;12.37;;;;;;;;;;4249042;33;20203;-64
2021/08/17 08:11:08;;;;;;;26.85;13.13;;;;;;;;;;4261026;33;20144;-65
2021/08/17 08:13:45;;;;;;;30.90;11.82;;;;;;;;;;4260609;33;20199;-64
2021/08/17 08:16:39;;;;;;;;;;;;;;;;;;4246023;33;20127;-69
2021/08/17 08:19:06;;;;;;;30.67;12.55;;;;;;;;;;4248759;33;20018;-68
2021/08/17 08:21:33;;;;;;;24.40;12.63;;;;;;;;;;4260108;33;20670;-65
2021/08/17 08:24:00;;;;;;;26.80;13.27;;;;;;;;;;4254725;33;20089;-62
2021/08/17 08:26:26;;;;;;;24.80;11.38;;;;;;;;;;4255536;33;20213;-63
2021/08/17 08:28:52;;;;;;;24.00;11.15;;;;;;;;;;4260837;33;20123;-67
2021/08/17 08:31:18;;;;;;;24.48;11.93;;;;;;;;;;4260464;33;20092;-67
2021/08/17 08:33:45;;;;;;;28.60;12.32;;;;;;;;;;4247673;33;20500;-67
2021/08/17 08:36:11;;;;;;;25.37;11.50;;;;;;;;;;4241719;33;20116;-66
2021/08/17 08:38:39;;;;;;;21.67;11.35;;;;;;;;;;4247243;33;20112;-65
2021/08/17 08:41:16;;;;;;;27.30;11.63;;;;;;;;;;4247913;33;20200;-65
2021/08/17 08:43:44;;;;;;;30.50;11.77;;;;;;;;;;4259110;33;20191;-67
2021/08/17 08:46:18;;;;;;;23.95;11.02;;;;;;;;;;4259954;33;20124;-67
2021/08/17 08:48:48;;;;;;;25.98;10.85;;;;;;;;;;4259662;33;20108;-66
2021/08/17 08:51:16;;;;;;;18.42;9.70;;;;;;;;;;4255107;33;20135;-65
2021/08/17 08:53:42;;;;;;;18.55;9.68;;;;;;;;;;4273351;33;20088;-66
2021/08/17 08:56:09;;;;;;;22.73;9.00;;;;;;;;;;4252630;33;20131;-66
2021/08/17 08:58:36;;;;;;;16.05;7.68;;;;;;;;;;4260517;33;20475;-66
2021/08/17 09:01:02;;;;;;;28.62;9.27;;;;;;;;;;4260053;33;20108;-67
2021/08/17 09:03:48;;;;;;;21.85;9.23;;;;;;;;;;4247229;33;20104;-66
2021/08/17 09:06:16;;;;;;;16.75;8.60;;;;;;;;;;4259928;33;20093;-66
2021/08/17 09:08:42;;;;;;;22.60;9.68;;;;;;;;;;4260049;33;20092;-65
2021/08/17 09:11:20;;;;;;;20.42;9.77;;;;;;;;;;4259612;33;20129;-66
2021/08/17 09:13:49;;;;;;;20.62;9.60;;;;;;;;;;4260289;33;20563;-66
2021/08/17 09:16:29;;;;;;;17.17;8.57;;;;;;;;;;4246582;33;20447;-66
2021/08/17 09:18:55;;;;;;;22.65;9.80;;;;;;;;;;4260036;33;20111;-64
2021/08/17 09:21:39;;;;;;;20.42;10.05;;;;;;;;;;4259857;33;20124;-68
2021/08/17 09:24:18;;;;;;;20.73;10.32;;;;;;;;;;4260074;33;20104;-70
2021/08/17 09:26:49;;;;;;;22.52;10.23;;;;;;;;;;4246368;33;20224;-70
2021/08/17 09:29:28;;;;;;;20.77;9.07;;;;;;;;;;4260076;33;20108;-70
2021/08/17 09:31:55;;;;;;;26.60;12.32;;;;;;;;;;4259985;33;20199;-70
2021/08/17 09:34:24;;;;;;;26.55;11.38;;;;;;;;;;4246868;33;20173;-70
2021/08/17 09:36:50;;;;;;;24.42;11.65;;;;;;;;;;4247966;33;20096;-69
2021/08/17 09:39:48;;;;;;;24.02;10.98;;;;;;;;;;4249081;33;20235;-70
2021/08/17 09:42:28;;;;;;;26.30;11.82;;;;;;;;;;4248082;33;20308;-69
2021/08/17 09:45:17;;;;;;;24.75;11.23;;;;;;;;;;4262212;33;20116;-69
2021/08/17 09:47:56;;;;;;;21.85;9.50;;;;;;;;;;4262133;33;20124;-70
2021/08/17 09:50:26;;;;;;;25.23;11.10;;;;;;;;;;4242734;33;20160;-70
2021/08/17 09:53:06;;;;;;;24.52;10.40;;;;;;;;;;4235296;33;20121;-69
2021/08/17 09:55:38;;;;;;;22.58;10.00;;;;;;;;;;4247667;33;20111;-64
2021/08/17 09:58:20;;;;;;;23.48;10.95;;;;;;;;;;4247668;33;20109;-64
2021/08/17 10:00:47;;;;;;;23.00;11.50;;;;;;;;;;4246195;33;20119;-65
2021/08/17 10:03:17;;;;;;;28.05;10.68;;;;;;;;;;4234798;33;20182;-68
2021/08/17 10:05:43;;;;;;;24.05;11.25;;;;;;;;;;4247657;33;20105;-65
2021/08/17 10:08:12;;;;;;;18.73;10.10;;;;;;;;;;4248007;33;20219;-68
2021/08/17 10:10:46;;;;;;;25.48;11.38;;;;;;;;;;4247769;33;20599;-62
2021/08/17 10:13:14;;;;;;;26.05;11.25;;;;;;;;;;4235054;33;20117;-66
2021/08/17 10:15:41;;;;;;;22.85;10.95;;;;;;;;;;4236071;33;20097;-68
2021/08/17 10:18:07;;;;;;;25.20;9.68;;;;;;;;;;4261808;33;20151;-67
2021/08/17 10:20:33;;;;;;;24.40;10.77;;;;;;;;;;4236781;33;20131;-67
2021/08/17 10:22:59;;;;;;;28.12;11.63;;;;;;;;;;4248659;33;20128;-67
2021/08/17 10:25:25;;;;;;;22.48;12.05;;;;;;;;;;4248534;33;20126;-67
2021/08/17 10:27:51;;;;;;;26.10;12.00;;;;;;;;;;4248712;33;20120;-70
2021/08/17 10:30:17;;;;;;;27.25;11.32;;;;;;;;;;4261699;33;20104;-65
2021/08/17 10:32:51;;;;;;;31.80;11.12;;;;;;;;;;4261599;33;20089;-63
2021/08/17 10:35:26;;;;;;;28.42;11.32;;;;;;;;;;4248968;33;20136;-69
2021/08/17 10:38:09;;;;;;;19.95;9.35;;;;;;;;;;4261415;33;20132;-69
2021/08/17 10:43:21;;;;;;;19.58;8.43;;;;;;;;;;4261611;33;20118;-69
2021/08/17 10:45:54;;;;;;;20.10;9.98;;;;;;;;;;4262104;33;20582;-69
2021/08/17 10:48:44;;;;;;;17.12;9.25;;;;;;;;;;4260868;33;20500;-70
2021/08/17 10:51:11;;;;;;;18.80;9.90;;;;;;;;;;4252106;33;20223;-66
2021/08/17 10:54:04;;;;;;;22.75;9.65;;;;;;;;;;4273769;33;20127;-65
2021/08/17 10:56:37;;;;;;;18.15;9.55;;;;;;;;;;4247894;33;20220;-68
2021/08/17 10:59:04;;;;;;;23.52;9.93;;;;;;;;;;4261311;33;20112;-67
2021/08/17 11:01:30;;;;;;;20.08;9.40;;;;;;;;;;4236226;33;20108;-64
2021/08/17 11:04:03;;;;;;;22.02;9.52;;;;;;;;;;4255232;33;20137;-66
2021/08/17 11:06:37;;;;;;;19.02;11.15;;;;;;;;;;4247156;33;20124;-65
2021/08/17 11:09:19;;;;;;;18.87;9.33;;;;;;;;;;4248348;33;20132;-63
2021/08/17 11:12:06;;;;;;;18.77;8.07;;;;;;;;;;4260260;33;20199;-65
2021/08/17 11:14:33;;;;;;;26.73;9.88;;;;;;;;;;4249620;33;20191;-65
2021/08/17 11:17:03;;;;;;;18.08;9.95;;;;;;;;;;4261375;33;20621;-65
2021/08/17 11:19:30;;;;;;;20.17;10.02;;;;;;;;;;4260792;33;20136;-65
2021/08/17 11:21:57;;;;;;;23.27;9.68;;;;;;;;;;4261271;33;20511;-66
2021/08/17 11:24:31;;;;;;;22.70;9.38;;;;;;;;;;4248123;33;20523;-66
2021/08/17 11:27:08;;;;;;;23.08;10.35;;;;;;;;;;4261097;33;20111;-63
2021/08/17 11:29:48;;;;;;;18.80;9.95;;;;;;;;;;4254509;33;20525;-68
2021/08/17 11:32:34;;;;;;;22.62;9.10;;;;;;;;;;4253597;33;20131;-68
2021/08/17 11:35:14;;;;;;;21.27;10.43;;;;;;;;;;4275170;33;20107;-69
2021/08/17 11:37:48;;;;;;;21.23;10.57;;;;;;;;;;4265838;33;20131;-69
2021/08/17 11:40:16;;;;;;;22.58;10.65;;;;;;;;;;4248065;33;20088;-68
2021/08/17 11:42:44;;;;;;;27.92;12.00;;;;;;;;;;4233963;33;20589;-68
2021/08/17 11:45:12;;;;;;;24.05;10.77;;;;;;;;;;4247720;33;20219;-69
2021/08/17 11:47:42;;;;;;;21.55;10.55;;;;;;;;;;4241307;33;20211;-71
2021/08/17 11:50:21;;;;;;;18.60;10.40;;;;;;;;;;4248617;33;20124;-68
2021/08/17 11:52:54;;;;;;;23.58;10.50;;;;;;;;;;4253037;33;20093;-67
2021/08/17 11:55:27;;;;;;;21.77;10.60;;;;;;;;;;4251451;33;20198;-69
2021/08/17 11:57:56;;;;;;;26.37;11.88;;;;;;;;;;4233317;33;20100;-68
2021/08/17 12:00:28;;;;;;;22.77;11.10;;;;;;;;;;4259763;33;20580;-68
2021/08/17 12:02:56;;;;;;;30.60;11.65;;;;;;;;;;4245212;33;20120;-69
2021/08/17 12:05:24;;;;;;;26.70;12.20;;;;;;;;;;4246233;33;20101;-69
2021/08/17 12:07:52;;;;;;;22.80;11.90;;;;;;;;;;4240375;33;20101;-69
2021/08/17 12:10:43;;;;;;;23.98;10.57;;;;;;;;;;4219560;33;20132;-69
2021/08/17 12:13:13;;;;;;;25.65;11.75;;;;;;;;;;4231789;33;20108;-69
2021/08/17 12:15:50;;;;;;;23.95;11.12;;;;;;;;;;4220720;33;20544;-69
2021/08/17 12:18:17;;;;;;;24.98;9.98;;;;;;;;;;4243337;33;20570;-66
2021/08/17 12:20:43;;;;;;;20.33;10.73;;;;;;;;;;4246673;33;20180;-66
2021/08/17 12:23:25;;;;;;;24.27;12.05;;;;;;;;;;4246560;33;20120;-65
2021/08/17 12:25:56;;;;;;;30.37;13.95;;;;;;;;;;4233025;33;20113;-69
2021/08/17 12:28:26;;;;;;;25.35;12.10;;;;;;;;;;4233805;33;20099;-67
2021/08/17 12:31:05;;;;;;;26.30;11.43;;;;;;;;;;4246745;33;20155;-68
2021/08/17 12:33:31;;;;;;;25.42;11.88;;;;;;;;;;4227023;33;20116;-67
2021/08/17 12:35:57;;;;;;;21.45;11.40;;;;;;;;;;4232228;33;20102;-65
2021/08/17 12:38:23;;;;;;;26.73;11.75;;;;;;;;;;4230479;33;20143;-67
2021/08/17 12:40:51;;;;;;;24.87;11.68;;;;;;;;;;4233555;33;20132;-64
2021/08/17 12:43:21;;;;;;;25.08;9.88;;;;;;;;;;4232956;33;20200;-68
2021/08/17 12:46:11;;;;;;;21.40;10.05;;;;;;;;;;4230542;33;20541;-69
2021/08/17 12:48:45;;;;;;;26.65;12.18;;;;;;;;;;4232897;33;20100;-65
2021/08/17 12:51:21;;;;;;;22.25;11.00;;;;;;;;;;4231640;33;20457;-66
2021/08/17 12:53:47;;;;;;;24.90;12.32;;;;;;;;;;4250683;33;20117;-66
2021/08/17 12:56:13;;;;;;;27.62;11.40;;;;;;;;;;4246062;33;20147;-66
2021/08/17 12:58:39;;;;;;;24.80;11.20;;;;;;;;;;4246716;33;20117;-65
2021/08/17 13:01:05;;;;;;;21.40;10.65;;;;;;;;;;4236845;33;20518;-64
2021/08/17 13:03:31;;;;;;;23.17;11.95;;;;;;;;;;4245134;33;20487;-69
2021/08/17 13:05:57;;;;;;;27.67;11.73;;;;;;;;;;4259844;33;20479;-67
2021/08/17 13:08:23;;;;;;;26.00;11.98;;;;;;;;;;4258604;33;20119;-68
2021/08/17 13:10:49;;;;;;;31.98;13.07;;;;;;;;;;4246830;33;20128;-68
2021/08/17 13:13:15;;;;;;;22.65;11.20;;;;;;;;;;4248894;33;20117;-66
2021/08/17 13:15:42;;;;;;;24.60;11.63;;;;;;;;;;4262195;33;20322;-67
2021/08/17 13:18:09;;;;;;;24.00;11.70;;;;;;;;;;4262268;33;20535;-62
2021/08/17 13:20:35;;;;;;;22.50;11.35;;;;;;;;;;4262369;33;20155;-63
2021/08/17 13:23:02;;;;;;;24.35;11.00;;;;;;;;;;4262472;33;20500;-68
2021/08/17 13:25:29;;;;;;;23.83;11.77;;;;;;;;;;4257541;33;20133;-66
2021/08/17 13:27:54;;;;;;;24.10;12.20;;;;;;;;;;4257202;33;20120;-67
2021/08/17 13:30:20;;;;;;;25.02;10.85;;;;;;;;;;4260892;33;20101;-67
2021/08/17 13:32:46;;;;;;;28.85;11.95;;;;;;;;;;4261712;33;20109;-66
2021/08/17 13:35:13;;;;;;;24.98;11.60;;;;;;;;;;4260220;33;20133;-67
2021/08/17 13:37:39;;;;;;;34.22;11.90;;;;;;;;;;4264569;33;20114;-64
2021/08/17 13:40:05;;;;;;;25.15;12.45;;;;;;;;;;4261514;33;20211;-66
2021/08/17 13:42:31;;;;;;;27.85;12.40;;;;;;;;;;4261854;33;20105;-66
2021/08/17 13:44:57;;;;;;;27.58;13.00;;;;;;;;;;4261914;33;20115;-63
2021/08/17 13:47:23;;;;;;;26.40;13.15;;;;;;;;;;4261891;33;20630;-65
2021/08/17 13:49:49;;;;;;;25.35;12.15;;;;;;;;;;4261549;33;20164;-63
2021/08/17 13:52:16;;;;;;;28.40;12.32;;;;;;;;;;4266286;33;20098;-67
2021/08/17 13:54:42;;;;;;;35.13;13.38;;;;;;;;;;4276230;33;20199;-65
2021/08/17 13:57:08;;;;;;;25.42;10.88;;;;;;;;;;4248231;33;20143;-66
2021/08/17 13:59:34;;;;;;;26.70;11.77;;;;;;;;;;4249125;33;20147;-66
2021/08/17 14:02:00;;;;;;;34.92;12.60;;;;;;;;;;4261374;33;20207;-64
2021/08/17 14:04:27;;;;;;;26.42;12.30;;;;;;;;;;4248695;33;20140;-65
2021/08/17 14:06:53;;;;;;;25.80;10.68;;;;;;;;;;4248316;33;20188;-66
2021/08/17 14:09:19;;;;;;;26.08;12.02;;;;;;;;;;4261764;33;20496;-63
2021/08/17 14:11:45;;;;;;;21.55;11.25;;;;;;;;;;4261450;33;20120;-65
2021/08/17 14:14:11;;;;;;;23.73;11.55;;;;;;;;;;4261784;33;20152;-66
2021/08/17 14:16:38;;;;;;;30.98;13.05;;;;;;;;;;4261466;33;20116;-64
2021/08/17 14:19:04;;;;;;;27.15;11.65;;;;;;;;;;4261772;33;20120;-65
2021/08/17 14:21:30;;;;;;;35.75;13.32;;;;;;;;;;4261653;33;20132;-65
2021/08/17 14:23:56;;;;;;;24.60;12.07;;;;;;;;;;4261794;33;20113;-66
2021/08/17 14:26:27;;;;;;;30.45;12.70;;;;;;;;;;4251886;33;20219;-65
2021/08/17 14:28:53;;;;;;;25.00;12.85;;;;;;;;;;4247572;33;20524;-65
2021/08/17 14:31:20;;;;;;;26.52;12.65;;;;;;;;;;4243328;33;20518;-64
2021/08/17 14:33:46;;;;;;;29.60;13.40;;;;;;;;;;4248695;33;20768;-64
2021/08/17 14:36:13;;;;;;;30.98;13.52;;;;;;;;;;4261066;33;20192;-63
2021/08/17 14:38:39;;;;;;;31.50;13.32;;;;;;;;;;4261057;33;20128;-63
2021/08/17 14:41:06;;;;;;;31.70;12.75;;;;;;;;;;4261105;33;20116;-65
2021/08/17 14:43:32;;;;;;;29.85;13.88;;;;;;;;;;4261280;33;20108;-65
2021/08/17 14:45:58;;;;;;;31.33;13.95;;;;;;;;;;4247963;33;20552;-64